createdAt,value
2017-10-26T00:00:43.030Z,40.27
2017-10-26T00:03:11.281Z,36.43
2017-10-26T00:05:39.517Z,42.00
2017-10-26T00:08:07.605Z,37.43
2017-10-26T00:10:35.077Z,37.37
2017-10-26T00:13:02.539Z,35.17
2017-10-26T00:15:30.014Z,36.60
2017-10-26T00:17:58.336Z,38.97
2017-10-26T00:20:25.808Z,36.10
2017-10-26T00:22:53.491Z,33.07
2017-10-26T00:25:20.964Z,31.37
2017-10-26T00:27:49.202Z,36.77
2017-10-26T00:30:16.685Z,36.73
2017-10-26T00:32:44.168Z,45.63
2017-10-26T00:35:11.630Z,41.70
2017-10-26T00:37:39.109Z,33.60
2017-10-26T00:40:06.581Z,33.80
2017-10-26T00:42:34.067Z,36.97
2017-10-26T00:45:01.554Z,32.33
2017-10-26T00:47:29.150Z,30.80
2017-10-26T00:49:56.730Z,31.43
2017-10-26T00:52:24.204Z,34.27
2017-10-26T00:54:51.666Z,25.67
2017-10-26T00:57:19.144Z,27.53
2017-10-26T00:59:47.375Z,30.43
2017-10-26T01:02:15.009Z,33.37
2017-10-26T01:04:42.472Z,29.73
2017-10-26T01:07:10.012Z,29.40
2017-10-26T01:09:37.479Z,32.10
2017-10-26T01:12:04.956Z,29.63
2017-10-26T01:14:33.057Z,30.23
2017-10-26T01:17:01.293Z,28.00
2017-10-26T01:19:28.794Z,35.43
2017-10-26T01:21:56.260Z,36.90
2017-10-26T01:24:24.490Z,34.97
2017-10-26T01:26:52.362Z,28.33
2017-10-26T01:29:19.842Z,29.73
2017-10-26T01:31:48.997Z,41.47
2017-10-26T01:34:16.502Z,24.23
2017-10-26T01:36:44.741Z,34.77
2017-10-26T01:39:12.229Z,32.37
2017-10-26T01:41:39.689Z,31.07
2017-10-26T01:44:07.937Z,34.60
2017-10-26T01:46:35.505Z,34.63
2017-10-26T01:49:03.035Z,40.83
2017-10-26T01:51:30.637Z,35.20
2017-10-26T01:53:58.116Z,38.50
2017-10-26T01:56:26.372Z,34.47
2017-10-26T01:58:53.833Z,35.73
2017-10-26T02:01:22.082Z,36.30
2017-10-26T02:03:49.642Z,31.77
2017-10-26T02:06:17.168Z,37.07
2017-10-26T02:08:44.638Z,41.33
2017-10-26T02:11:12.106Z,35.90
2017-10-26T02:13:39.598Z,31.93
2017-10-26T02:16:07.818Z,40.93
2017-10-26T02:18:35.294Z,35.67
2017-10-26T02:21:02.762Z,32.93
2017-10-26T02:23:30.244Z,34.07
2017-10-26T02:25:58.479Z,38.30
2017-10-26T02:28:47.748Z,38.00
2017-10-26T02:31:27.109Z,37.40
2017-10-26T02:33:55.372Z,38.60
2017-10-26T02:36:22.805Z,43.57
2017-10-26T02:38:50.284Z,33.07
2017-10-26T02:41:17.761Z,37.40
2017-10-26T02:43:45.236Z,38.37
2017-10-26T02:46:13.502Z,35.83
2017-10-26T02:48:41.722Z,34.20
2017-10-26T02:51:09.216Z,39.03
2017-10-26T02:53:37.525Z,46.23
2017-10-26T02:56:05.138Z,39.60
2017-10-26T02:58:32.700Z,39.27
2017-10-26T03:01:00.326Z,40.00
2017-10-26T03:03:27.843Z,38.80
2017-10-26T03:05:55.297Z,36.70
2017-10-26T03:08:23.560Z,39.73
2017-10-26T03:10:51.022Z,50.73
2017-10-26T03:13:18.497Z,32.90
2017-10-26T03:15:46.769Z,35.60
2017-10-26T03:18:15.014Z,39.97
2017-10-26T03:20:42.494Z,42.10
2017-10-26T03:23:11.589Z,34.67
2017-10-26T03:25:39.173Z,34.50
2017-10-26T03:28:07.407Z,43.17
2017-10-26T03:30:34.882Z,35.50
2017-10-26T03:33:03.106Z,38.23
2017-10-26T03:35:30.582Z,37.70
2017-10-26T03:37:58.040Z,40.27
2017-10-26T03:40:25.554Z,38.50
2017-10-26T03:42:53.116Z,38.20
2017-10-26T03:45:20.758Z,39.03
2017-10-26T03:47:48.992Z,40.60
2017-10-26T03:50:16.466Z,39.73
2017-10-26T03:52:43.933Z,35.00
2017-10-26T03:55:12.158Z,37.10
2017-10-26T03:57:39.697Z,39.77
2017-10-26T04:00:07.173Z,41.67
2017-10-26T04:02:34.656Z,35.97
2017-10-26T04:05:02.289Z,32.80
2017-10-26T04:07:29.801Z,34.80
2017-10-26T04:09:57.376Z,37.67
2017-10-26T04:12:25.637Z,40.47
2017-10-26T04:14:54.006Z,34.33
2017-10-26T04:17:21.525Z,36.00
2017-10-26T04:19:49.029Z,32.97
2017-10-26T04:22:16.504Z,39.20
2017-10-26T04:24:44.764Z,34.73
2017-10-26T04:27:12.977Z,33.73
2017-10-26T04:29:40.568Z,36.80
2017-10-26T04:32:08.612Z,36.23
2017-10-26T04:34:36.232Z,31.10
2017-10-26T04:37:04.464Z,31.73
2017-10-26T04:39:31.954Z,35.33
2017-10-26T04:42:01.050Z,30.50
2017-10-26T04:44:28.527Z,34.07
2017-10-26T04:46:56.774Z,37.23
2017-10-26T04:49:24.249Z,36.03
2017-10-26T04:51:52.477Z,36.00
2017-10-26T04:54:19.964Z,33.80
2017-10-26T04:56:47.529Z,34.00
2017-10-26T04:59:15.017Z,35.93
2017-10-26T05:01:42.492Z,34.17
2017-10-26T05:04:09.949Z,39.20
2017-10-26T05:06:37.426Z,35.00
2017-10-26T05:09:04.915Z,39.40
2017-10-26T05:11:33.146Z,35.27
2017-10-26T05:14:00.632Z,35.33
2017-10-26T05:16:28.105Z,34.47
2017-10-26T05:18:55.570Z,29.97
2017-10-26T05:21:23.822Z,35.90
2017-10-26T05:23:52.032Z,36.13
2017-10-26T05:26:20.274Z,38.37
2017-10-26T05:28:48.150Z,34.37
2017-10-26T05:31:15.602Z,37.07
2017-10-26T05:33:43.068Z,39.83
2017-10-26T05:36:11.464Z,30.17
2017-10-26T05:38:39.776Z,33.10
2017-10-26T05:41:07.461Z,30.13
2017-10-26T05:43:35.037Z,30.43
2017-10-26T05:46:02.626Z,31.23
2017-10-26T05:48:30.105Z,32.50
2017-10-26T05:50:57.588Z,32.90
2017-10-26T05:53:25.048Z,33.87
2017-10-26T05:55:52.527Z,33.90
2017-10-26T05:58:20.770Z,29.33
2017-10-26T06:00:48.244Z,32.53
2017-10-26T06:03:15.702Z,31.57
2017-10-26T06:05:43.201Z,29.30
2017-10-26T06:08:10.925Z,31.50
2017-10-26T06:10:39.165Z,31.97
2017-10-26T06:13:06.636Z,35.37
2017-10-26T06:15:34.105Z,31.40
2017-10-26T06:18:01.580Z,31.97
2017-10-26T06:20:29.838Z,32.77
2017-10-26T06:22:57.413Z,31.90
2017-10-26T06:25:24.941Z,30.40
2017-10-26T06:27:52.590Z,30.70
2017-10-26T06:30:20.150Z,31.00
2017-10-26T06:32:47.717Z,29.90
2017-10-26T06:35:15.332Z,28.13
2017-10-26T06:37:43.582Z,35.80
2017-10-26T06:40:11.808Z,29.23
2017-10-26T06:42:39.292Z,37.77
2017-10-26T06:45:06.765Z,28.97
2017-10-26T06:47:34.253Z,31.37
2017-10-26T06:50:02.498Z,32.60
2017-10-26T06:52:29.957Z,31.80
2017-10-26T06:54:59.047Z,33.50
2017-10-26T06:57:26.514Z,38.93
2017-10-26T06:59:54.031Z,28.70
2017-10-26T07:02:21.499Z,29.00
2017-10-26T07:04:48.968Z,34.43
2017-10-26T07:07:16.457Z,27.90
2017-10-26T07:09:44.702Z,30.90
2017-10-26T07:12:12.177Z,29.90
2017-10-26T07:14:39.637Z,24.67
2017-10-26T07:17:07.125Z,22.17
2017-10-26T07:19:34.594Z,24.20
2017-10-26T07:22:02.068Z,25.33
2017-10-26T07:24:29.543Z,26.30
2017-10-26T07:26:57.033Z,24.83
2017-10-26T07:29:24.493Z,25.03
2017-10-26T07:31:52.814Z,23.93
2017-10-26T07:34:20.365Z,26.20
2017-10-26T07:36:48.038Z,28.23
2017-10-26T07:39:15.598Z,28.57
2017-10-26T07:41:43.088Z,32.10
2017-10-26T07:44:10.564Z,28.13
2017-10-26T07:46:38.812Z,23.57
2017-10-26T07:49:06.300Z,25.90
2017-10-26T07:51:34.636Z,29.23
2017-10-26T07:54:02.118Z,27.03
2017-10-26T07:56:29.646Z,27.93
2017-10-26T07:58:57.166Z,22.37
2017-10-26T08:01:24.641Z,24.97
2017-10-26T08:03:52.306Z,28.10
2017-10-26T08:06:19.795Z,24.93
2017-10-26T08:08:47.265Z,24.27
2017-10-26T08:11:14.806Z,26.87
2017-10-26T08:13:43.165Z,25.23
2017-10-26T08:16:10.717Z,21.53
2017-10-26T08:18:38.218Z,24.73
2017-10-26T08:21:05.688Z,23.13
2017-10-26T08:23:33.940Z,22.80
2017-10-26T08:26:02.914Z,21.33
2017-10-26T08:28:30.406Z,20.77
2017-10-26T08:30:57.997Z,20.83
2017-10-26T08:33:25.488Z,23.10
2017-10-26T08:35:53.100Z,24.63
2017-10-26T08:38:20.592Z,25.40
2017-10-26T08:40:48.107Z,22.00
2017-10-26T08:43:16.347Z,37.33
2017-10-26T08:45:43.820Z,21.70
2017-10-26T08:48:11.283Z,19.40
2017-10-26T08:50:38.771Z,22.67
2017-10-26T08:53:06.241Z,16.97
2017-10-26T08:55:33.724Z,17.00
2017-10-26T08:58:01.207Z,28.03
2017-10-26T09:00:28.680Z,21.53
2017-10-26T09:02:56.950Z,20.63
2017-10-26T09:05:25.191Z,22.70
2017-10-26T09:07:52.673Z,19.83
2017-10-26T09:10:21.409Z,15.97
2017-10-26T09:12:48.937Z,23.63
2017-10-26T09:15:17.182Z,13.10
2017-10-26T09:17:45.434Z,12.37
2017-10-26T09:20:12.948Z,13.07
2017-10-26T09:22:40.414Z,12.80
2017-10-26T09:25:07.889Z,13.83
2017-10-26T09:27:35.373Z,18.10
2017-10-26T09:30:03.019Z,14.33
2017-10-26T09:32:30.701Z,18.27
2017-10-26T09:34:58.161Z,18.73
2017-10-26T09:37:25.849Z,11.83
2017-10-26T09:39:54.082Z,13.57
2017-10-26T09:42:21.593Z,23.23
2017-10-26T09:44:49.822Z,14.30
2017-10-26T09:47:17.285Z,12.93
2017-10-26T09:49:44.761Z,16.43
2017-10-26T09:52:12.249Z,14.60
2017-10-26T09:54:39.765Z,14.23
2017-10-26T09:57:08.739Z,14.97
2017-10-26T09:59:36.216Z,12.70
2017-10-26T10:02:05.182Z,14.43
2017-10-26T10:04:32.674Z,18.20
2017-10-26T10:07:00.894Z,20.80
2017-10-26T10:09:28.398Z,20.90
2017-10-26T10:11:55.914Z,14.10
2017-10-26T10:14:23.442Z,14.20
2017-10-26T10:16:51.695Z,17.43
2017-10-26T10:19:19.156Z,13.70
2017-10-26T10:21:46.624Z,17.53
2017-10-26T10:24:14.863Z,15.83
2017-10-26T10:26:42.362Z,15.60
2017-10-26T10:29:10.590Z,13.10
2017-10-26T10:31:38.177Z,14.03
2017-10-26T10:34:06.426Z,13.40
2017-10-26T10:36:34.047Z,15.10
2017-10-26T10:39:01.524Z,15.27
2017-10-26T10:41:28.974Z,16.40
2017-10-26T10:43:56.498Z,12.57
2017-10-26T10:46:24.725Z,15.63
2017-10-26T10:48:52.201Z,12.37
2017-10-26T10:51:21.275Z,15.63
2017-10-26T10:53:48.818Z,11.80
2017-10-26T10:56:16.408Z,13.97
2017-10-26T10:58:43.892Z,14.13
2017-10-26T11:01:12.165Z,15.30
2017-10-26T11:03:39.649Z,12.90
2017-10-26T11:06:07.125Z,13.30
2017-10-26T11:08:34.584Z,17.30
2017-10-26T11:11:02.049Z,14.97
2017-10-26T11:13:29.647Z,10.27
2017-10-26T11:15:57.101Z,18.70
2017-10-26T11:18:24.574Z,13.80
2017-10-26T11:20:52.805Z,15.00
2017-10-26T11:23:20.299Z,12.97
2017-10-26T11:25:48.693Z,12.97
2017-10-26T11:28:17.121Z,12.30
2017-10-26T11:30:44.772Z,16.63
2017-10-26T11:33:12.282Z,12.23
2017-10-26T11:35:41.382Z,14.90
2017-10-26T11:38:09.625Z,14.73
2017-10-26T11:40:38.631Z,19.10
2017-10-26T11:43:07.607Z,14.60
2017-10-26T11:45:35.857Z,15.07
2017-10-26T11:48:03.345Z,13.43
2017-10-26T11:50:31.596Z,14.57
2017-10-26T11:52:59.067Z,10.40
2017-10-26T11:55:26.664Z,11.67
2017-10-26T11:57:55.317Z,11.87
2017-10-26T12:00:22.785Z,11.30
2017-10-26T12:02:50.277Z,13.23
2017-10-26T12:05:17.779Z,12.53
2017-10-26T12:07:45.240Z,17.17
2017-10-26T12:10:12.739Z,11.77
2017-10-26T12:12:40.961Z,11.70
2017-10-26T12:15:08.515Z,11.90
2017-10-26T12:17:36.086Z,13.27
2017-10-26T12:20:03.736Z,10.63
2017-10-26T12:22:31.240Z,9.60
2017-10-26T12:24:59.638Z,11.20
2017-10-26T12:27:27.121Z,9.13
2017-10-26T12:29:54.583Z,8.23
2017-10-26T12:32:22.185Z,11.23
2017-10-26T12:34:50.925Z,11.70
2017-10-26T12:37:18.454Z,9.50
2017-10-26T12:39:47.434Z,9.37
2017-10-26T12:42:15.678Z,9.70
2017-10-26T12:44:43.170Z,12.70
2017-10-26T12:47:11.412Z,11.43
2017-10-26T12:49:38.918Z,11.10
2017-10-26T12:52:07.594Z,9.20
2017-10-26T12:54:35.086Z,11.47
2017-10-26T12:57:02.573Z,10.83
2017-10-26T12:59:30.059Z,8.40
2017-10-26T13:01:58.284Z,8.20
2017-10-26T13:04:25.979Z,12.50
2017-10-26T13:06:53.508Z,10.73
2017-10-26T13:09:21.169Z,7.20
2017-10-26T13:11:48.658Z,9.00
2017-10-26T13:14:16.891Z,8.47
2017-10-26T13:16:44.499Z,10.00
2017-10-26T13:19:12.743Z,11.00
2017-10-26T13:21:40.224Z,7.97
2017-10-26T13:24:07.693Z,8.90
2017-10-26T13:26:36.073Z,11.10
2017-10-26T13:29:04.428Z,9.67
2017-10-26T13:31:33.413Z,14.80
2017-10-26T13:34:02.413Z,11.50
2017-10-26T13:36:29.966Z,14.37
2017-10-26T13:38:59.106Z,8.93
2017-10-26T13:41:26.706Z,14.53
2017-10-26T13:43:54.197Z,10.03
2017-10-26T13:46:22.431Z,13.43
2017-10-26T13:48:49.905Z,13.10
2017-10-26T13:51:17.408Z,14.90
2017-10-26T13:53:45.642Z,14.73
2017-10-26T13:56:13.881Z,13.73
2017-10-26T13:58:41.367Z,12.40
2017-10-26T14:01:08.843Z,11.53
2017-10-26T14:03:37.056Z,20.40
2017-10-26T14:06:04.589Z,16.60
2017-10-26T14:08:32.817Z,11.60
2017-10-26T14:11:00.310Z,13.07
2017-10-26T14:13:27.894Z,14.33
2017-10-26T14:15:56.152Z,11.50
2017-10-26T14:18:25.114Z,11.07
2017-10-26T14:20:52.605Z,11.50
2017-10-26T14:23:21.441Z,11.23
2017-10-26T14:25:49.001Z,18.00
2017-10-26T14:28:16.496Z,14.00
2017-10-26T14:30:44.124Z,14.50
2017-10-26T14:33:11.605Z,12.60
2017-10-26T14:35:39.103Z,12.93
2017-10-26T14:38:06.587Z,19.03
2017-10-26T14:40:34.074Z,14.53
2017-10-26T14:43:01.582Z,12.27
2017-10-26T14:45:29.061Z,17.90
2017-10-26T14:47:56.721Z,15.77
2017-10-26T14:50:24.343Z,12.73
2017-10-26T14:52:52.566Z,17.80
2017-10-26T14:55:20.809Z,27.63
2017-10-26T14:57:48.280Z,13.23
2017-10-26T15:00:15.791Z,17.47
2017-10-26T15:02:43.253Z,14.47
2017-10-26T15:05:11.500Z,17.50
2017-10-26T15:07:38.972Z,13.60
2017-10-26T15:10:06.435Z,15.50
2017-10-26T15:12:33.923Z,17.80
2017-10-26T15:15:01.389Z,13.30
2017-10-26T15:17:28.875Z,14.83
2017-10-26T15:19:56.358Z,15.30
2017-10-26T15:22:24.039Z,14.43
2017-10-26T15:24:52.292Z,16.53
2017-10-26T15:27:19.771Z,12.97
2017-10-26T15:29:48.033Z,17.50
2017-10-26T15:32:16.997Z,14.60
2017-10-26T15:34:44.483Z,14.47
2017-10-26T15:37:11.946Z,13.27
2017-10-26T15:39:39.420Z,16.90
2017-10-26T15:42:06.881Z,14.80
2017-10-26T15:44:38.256Z,14.10
2017-10-26T15:47:05.734Z,14.00
2017-10-26T15:49:33.225Z,16.33
2017-10-26T15:52:00.708Z,15.13
2017-10-26T15:54:28.957Z,17.23
2017-10-26T15:56:57.194Z,15.93
2017-10-26T15:59:24.796Z,20.07
2017-10-26T16:01:52.259Z,17.27
2017-10-26T16:04:20.524Z,18.67
2017-10-26T16:06:48.789Z,15.77
2017-10-26T16:09:16.252Z,15.93
2017-10-26T16:11:43.713Z,17.80
2017-10-26T16:14:11.954Z,21.23
2017-10-26T16:16:39.436Z,20.90
2017-10-26T16:19:07.066Z,24.63
2017-10-26T16:21:34.549Z,21.87
2017-10-26T16:24:02.018Z,28.07
2017-10-26T16:26:30.257Z,24.33
2017-10-26T16:28:57.741Z,21.67
2017-10-26T16:31:25.217Z,22.70
2017-10-26T16:33:53.471Z,23.07
2017-10-26T16:36:20.949Z,23.03
2017-10-26T16:38:49.175Z,23.67
2017-10-26T16:41:16.694Z,22.47
2017-10-26T16:43:44.170Z,25.03
2017-10-26T16:46:11.662Z,24.53
2017-10-26T16:48:39.337Z,24.97
2017-10-26T16:51:08.329Z,31.23
2017-10-26T16:53:35.816Z,27.50
2017-10-26T16:56:04.150Z,25.00
2017-10-26T16:58:31.681Z,34.10
2017-10-26T17:00:59.150Z,25.73
2017-10-26T17:03:26.767Z,27.03
2017-10-26T17:05:55.003Z,23.90
2017-10-26T17:08:22.484Z,26.07
2017-10-26T17:10:50.721Z,27.40
2017-10-26T17:13:18.205Z,28.80
2017-10-26T17:15:45.883Z,28.70
2017-10-26T17:18:14.114Z,30.30
2017-10-26T17:20:41.610Z,24.97
2017-10-26T17:23:09.845Z,24.20
2017-10-26T17:25:37.350Z,27.93
2017-10-26T17:28:05.600Z,24.50
2017-10-26T17:30:33.845Z,26.07
2017-10-26T17:33:01.337Z,30.40
2017-10-26T17:35:29.568Z,30.73
2017-10-26T17:37:57.065Z,31.97
2017-10-26T17:40:25.349Z,27.60
2017-10-26T17:42:52.837Z,27.47
2017-10-26T17:45:21.084Z,26.13
2017-10-26T17:47:49.326Z,24.87
2017-10-26T17:50:17.546Z,30.97
2017-10-26T17:52:45.793Z,26.00
2017-10-26T17:57:47.895Z,32.07
2017-10-26T18:00:15.366Z,33.57
2017-10-26T18:02:43.684Z,27.37
2017-10-26T18:05:11.244Z,32.33
2017-10-26T18:07:38.717Z,27.43
2017-10-26T18:10:06.377Z,24.93
2017-10-26T18:12:33.847Z,26.67
2017-10-26T18:15:02.086Z,28.90
2017-10-26T18:17:41.876Z,29.70
2017-10-26T18:20:13.589Z,33.53
2017-10-26T18:22:41.067Z,32.53
2017-10-26T18:25:10.677Z,20.60
2017-10-26T18:27:38.148Z,16.33
2017-10-26T18:30:06.021Z,17.40
2017-10-26T18:32:34.423Z,15.17
2017-10-26T18:35:01.906Z,13.50
2017-10-26T18:37:29.723Z,16.43
2017-10-26T18:39:57.254Z,14.30
2017-10-26T18:42:24.908Z,15.43
2017-10-26T18:44:52.401Z,16.20
2017-10-26T18:47:21.011Z,20.50
2017-10-26T18:49:49.587Z,24.83
2017-10-26T18:52:18.096Z,30.73
2017-10-26T18:54:45.578Z,33.97
2017-10-26T18:57:13.072Z,30.10
2017-10-26T18:59:41.494Z,34.10
2017-10-26T19:02:08.994Z,39.87
2017-10-26T19:04:37.235Z,31.40
2017-10-26T19:07:04.723Z,30.53
2017-10-26T19:09:32.997Z,39.87
2017-10-26T19:12:00.671Z,34.40
2017-10-26T19:14:28.954Z,27.70
2017-10-26T19:16:57.205Z,25.83
2017-10-26T19:19:26.212Z,18.87
2017-10-26T19:21:53.694Z,18.43
2017-10-26T19:24:21.177Z,20.70
2017-10-26T19:26:48.789Z,18.03
2017-10-26T19:29:17.067Z,18.10
2017-10-26T19:31:44.539Z,17.70
2017-10-26T19:34:18.544Z,17.20
2017-10-26T19:36:46.097Z,21.43
2017-10-26T19:39:14.369Z,19.00
2017-10-26T19:41:42.128Z,22.20
2017-10-26T19:44:09.647Z,24.53
2017-10-26T19:46:37.670Z,39.17
2017-10-26T19:49:05.971Z,30.30
2017-10-26T19:51:33.582Z,28.10
2017-10-26T19:54:01.200Z,29.90
2017-10-26T19:56:29.068Z,68.13
2017-10-26T19:58:56.733Z,84.97
2017-10-26T20:01:24.485Z,82.90
2017-10-26T20:03:51.997Z,95.07
2017-10-26T20:06:20.218Z,91.47
2017-10-26T20:08:47.790Z,93.60
2017-10-26T20:11:15.343Z,92.70
2017-10-26T20:13:42.869Z,95.30
2017-10-26T20:16:10.400Z,101.13
2017-10-26T20:18:37.888Z,99.53
2017-10-26T20:21:06.208Z,89.37
2017-10-26T20:23:34.321Z,87.57
2017-10-26T20:26:02.565Z,94.57
2017-10-26T20:28:30.075Z,86.03
2017-10-26T20:30:57.574Z,90.90
2017-10-26T20:33:25.427Z,78.57
2017-10-26T20:35:52.964Z,75.97
2017-10-26T20:38:20.554Z,95.40
2017-10-26T20:40:49.584Z,101.10
2017-10-26T20:43:17.434Z,92.27
2017-10-26T20:45:44.906Z,94.27
2017-10-26T20:48:13.182Z,78.77
2017-10-26T20:50:47.049Z,68.00
2017-10-26T20:53:20.378Z,77.23
2017-10-26T20:55:54.400Z,48.93
2017-10-26T20:58:27.885Z,41.13
2017-10-26T21:01:02.167Z,39.20
2017-10-26T21:03:35.393Z,35.17
2017-10-26T21:06:09.333Z,41.60
2017-10-26T21:08:42.562Z,33.23
2017-10-26T21:11:15.819Z,24.50
2017-10-26T21:13:49.050Z,21.90
2017-10-26T21:16:16.715Z,20.70
2017-10-26T21:18:44.203Z,21.90
2017-10-26T21:21:12.573Z,24.20
2017-10-26T21:23:41.570Z,26.13
2017-10-26T21:26:09.141Z,21.00
2017-10-26T21:28:37.597Z,17.73
2017-10-26T21:31:05.105Z,21.40
2017-10-26T21:33:38.200Z,22.67
2017-10-26T21:36:05.697Z,25.10
2017-10-26T21:38:34.686Z,24.10
2017-10-26T21:41:02.205Z,23.70
2017-10-26T21:43:29.692Z,23.07
2017-10-26T21:45:57.178Z,18.67
2017-10-26T21:48:24.678Z,16.97
2017-10-26T21:50:52.146Z,22.10
2017-10-26T21:53:19.636Z,19.83
2017-10-26T21:55:47.127Z,24.60
2017-10-26T21:58:15.390Z,19.60
2017-10-26T22:00:43.659Z,24.07
2017-10-26T22:03:11.984Z,20.33
2017-10-26T22:05:40.367Z,26.30
2017-10-26T22:08:07.865Z,19.27
2017-10-26T22:10:35.392Z,17.80
2017-10-26T22:13:02.958Z,22.50
2017-10-26T22:15:30.465Z,19.83
2017-10-26T22:17:58.783Z,19.87
2017-10-26T22:20:27.482Z,21.33
2017-10-26T22:22:55.225Z,23.93
2017-10-26T22:25:23.560Z,20.97
2017-10-26T22:27:51.916Z,22.80
2017-10-26T22:30:20.185Z,19.70
2017-10-26T22:32:48.170Z,24.53
2017-10-26T22:35:15.854Z,24.23
2017-10-26T22:37:44.102Z,26.13
2017-10-26T22:40:12.443Z,28.43
2017-10-26T22:42:39.947Z,29.73
2017-10-26T22:45:07.931Z,28.47
2017-10-26T22:47:36.303Z,25.23
2017-10-26T22:50:04.846Z,26.80
2017-10-26T22:52:33.032Z,26.20
2017-10-26T22:55:00.669Z,21.83
2017-10-26T22:57:29.177Z,23.17
2017-10-26T22:59:56.724Z,36.37
2017-10-26T23:02:24.200Z,71.27
2017-10-26T23:04:58.810Z,50.60
2017-10-26T23:07:26.284Z,33.20
2017-10-26T23:09:53.830Z,26.13
2017-10-26T23:12:21.305Z,26.83
2017-10-26T23:14:49.563Z,26.23
2017-10-26T23:17:17.037Z,29.77
2017-10-26T23:19:45.279Z,32.00
2017-10-26T23:22:12.762Z,28.90
2017-10-26T23:24:40.253Z,32.87
2017-10-26T23:27:07.740Z,37.00
2017-10-26T23:29:35.254Z,34.00
2017-10-26T23:32:03.484Z,33.40
2017-10-26T23:34:31.050Z,41.47
2017-10-26T23:36:58.517Z,38.80
2017-10-26T23:39:26.004Z,31.30
2017-10-26T23:41:54.245Z,35.90
2017-10-26T23:44:21.729Z,33.27
2017-10-26T23:46:49.973Z,32.70
2017-10-26T23:49:17.627Z,32.83
2017-10-26T23:51:45.254Z,32.63
2017-10-26T23:54:12.732Z,37.40
2017-10-26T23:56:40.215Z,29.00
2017-10-26T23:59:08.463Z,27.00
